Time;durP1;ratioP1;P1;durP2;ratioP2;P2;SDS_P1;SDS_P2;PMS_P1;PMS_P2;Temp;Humidity;BMP_temperature;BMP_pressure;BME280_temperature;BME280_humidity;BME280_pressure;Samples;Min_cycle;Max_cycle;Signal;HPM_P1;HPM_P2
2023/10/23 00:02:00;;;;;;;6.10;1.50;;;13.40;99.90;;;;;;5041070;28;20091;-76
2023/10/23 00:04:25;;;;;;;8.40;2.00;;;13.40;99.90;;;;;;5046045;28;20044;-75
2023/10/23 00:06:51;;;;;;;3.78;1.70;;;13.40;99.90;;;;;;5039561;28;20371;-75
2023/10/23 00:09:17;;;;;;;6.35;1.52;;;13.50;99.90;;;;;;5035893;28;20071;-75
2023/10/23 00:11:42;;;;;;;5.28;1.90;;;13.50;99.90;;;;;;5039272;28;20079;-75
2023/10/23 00:14:08;;;;;;;8.95;1.73;;;13.50;99.90;;;;;;5041702;28;20401;-75
2023/10/23 00:16:34;;;;;;;3.50;1.63;;;13.50;99.90;;;;;;5037801;28;20079;-75
2023/10/23 00:19:00;;;;;;;4.18;1.60;;;13.50;99.90;;;;;;5036427;28;20056;-75
2023/10/23 00:21:25;;;;;;;7.55;2.25;;;13.40;99.90;;;;;;5041988;28;20033;-75
2023/10/23 00:23:51;;;;;;;5.82;1.75;;;13.40;99.90;;;;;;5038440;28;20032;-75
2023/10/23 00:26:17;;;;;;;4.03;1.80;;;13.30;99.90;;;;;;5037534;28;20033;-75
2023/10/23 00:28:43;;;;;;;7.75;1.90;;;13.30;99.90;;;;;;5037392;28;20037;-75
2023/10/23 00:31:08;;;;;;;7.35;2.03;;;13.20;99.90;;;;;;5032332;28;20029;-75
2023/10/23 00:33:34;;;;;;;6.55;2.78;;;13.20;99.90;;;;;;5032161;28;20044;-75
2023/10/23 00:36:00;;;;;;;6.00;1.85;;;13.20;99.90;;;;;;5043339;28;20032;-75
2023/10/23 00:38:28;;;;;;;3.63;1.70;;;13.20;99.90;;;;;;5042894;28;20065;-75
2023/10/23 00:40:54;;;;;;;8.50;1.83;;;13.00;99.90;;;;;;5038634;28;20381;-75
2023/10/23 00:43:21;;;;;;;5.13;1.90;;;13.00;99.90;;;;;;5034934;28;20107;-75
2023/10/23 00:45:53;;;;;;;3.50;1.40;;;13.00;99.90;;;;;;5041235;28;20033;-75
2023/10/23 00:48:21;;;;;;;7.07;1.58;;;12.90;99.90;;;;;;5035046;28;20428;-75
2023/10/23 00:50:48;;;;;;;6.70;2.17;;;12.90;99.90;;;;;;5047105;28;20029;-75
2023/10/23 00:53:15;;;;;;;5.75;1.63;;;13.00;99.90;;;;;;5034291;28;20067;-75
2023/10/23 00:55:41;;;;;;;8.55;1.80;;;12.90;99.90;;;;;;5037854;28;20056;-75
2023/10/23 00:58:07;;;;;;;4.30;1.77;;;12.90;99.90;;;;;;5032445;28;20712;-75
2023/10/23 01:00:35;;;;;;;4.05;1.20;;;13.00;99.90;;;;;;5041455;28;20040;-75
2023/10/23 01:03:02;;;;;;;4.55;1.50;;;13.00;99.90;;;;;;5033674;28;20053;-76
2023/10/23 01:05:27;;;;;;;5.07;1.45;;;12.90;99.90;;;;;;5039702;28;20025;-75
2023/10/23 01:07:55;;;;;;;5.28;1.83;;;12.90;99.90;;;;;;5039090;28;20103;-75
2023/10/23 01:10:21;;;;;;;4.47;1.45;;;12.90;99.90;;;;;;5034875;28;20048;-75
2023/10/23 01:12:47;;;;;;;5.50;1.60;;;12.80;99.90;;;;;;5036530;28;20482;-75
2023/10/23 01:15:13;;;;;;;5.80;1.67;;;12.80;99.90;;;;;;5038596;28;20033;-75
2023/10/23 01:17:39;;;;;;;6.55;2.03;;;12.90;99.90;;;;;;5042227;28;20091;-75
2023/10/23 01:20:08;;;;;;;6.78;1.63;;;12.90;99.90;;;;;;5036268;28;21459;-75
2023/10/23 01:22:34;;;;;;;5.03;1.33;;;13.00;99.90;;;;;;5038196;28;20049;-75
2023/10/23 01:25:01;;;;;;;4.80;1.60;;;13.00;99.90;;;;;;5039140;28;20057;-75
2023/10/23 01:27:27;;;;;;;5.38;1.67;;;13.00;99.90;;;;;;5037075;28;20028;-75
2023/10/23 01:29:53;;;;;;;5.32;2.08;;;13.00;99.90;;;;;;5039145;28;20062;-75
2023/10/23 01:32:19;;;;;;;3.45;1.38;;;13.00;99.90;;;;;;5038592;28;20108;-75
2023/10/23 01:34:44;;;;;;;5.57;1.55;;;13.00;99.90;;;;;;5038276;28;20043;-75
2023/10/23 01:37:10;;;;;;;5.32;1.27;;;13.00;99.90;;;;;;5039166;28;20090;-75
2023/10/23 01:39:36;;;;;;;3.92;1.73;;;13.00;99.90;;;;;;5037257;28;20077;-75
2023/10/23 01:42:01;;;;;;;7.38;2.13;;;13.00;99.90;;;;;;5034344;28;20033;-75
2023/10/23 01:44:27;;;;;;;7.72;1.80;;;13.00;99.90;;;;;;5038989;28;20112;-75
2023/10/23 01:46:52;;;;;;;10.75;2.00;;;13.00;99.90;;;;;;5041486;28;20033;-75
2023/10/23 01:49:18;;;;;;;5.75;1.67;;;12.90;99.90;;;;;;5037273;28;20558;-75
2023/10/23 01:51:44;;;;;;;2.88;1.40;;;12.80;99.90;;;;;;5037127;28;20441;-75
2023/10/23 01:54:10;;;;;;;8.60;2.15;;;12.70;99.90;;;;;;5034111;28;20040;-75
2023/10/23 01:56:36;;;;;;;8.38;1.60;;;12.50;99.90;;;;;;5035009;28;20045;-75
2023/10/23 01:59:01;;;;;;;5.53;1.83;;;12.50;99.90;;;;;;5038158;28;20064;-75
2023/10/23 02:01:27;;;;;;;6.47;2.05;;;12.50;99.90;;;;;;5036942;28;20030;-75
2023/10/23 02:03:53;;;;;;;4.80;2.17;;;12.60;99.90;;;;;;5040100;28;20497;-75
2023/10/23 02:06:18;;;;;;;6.32;2.40;;;12.50;99.90;;;;;;5035285;28;20033;-75
2023/10/23 02:08:44;;;;;;;4.15;1.55;;;12.50;99.90;;;;;;5034128;28;20037;-75
2023/10/23 02:11:10;;;;;;;6.32;1.83;;;12.60;99.90;;;;;;5033881;28;20390;-75
2023/10/23 02:13:36;;;;;;;10.27;2.63;;;12.60;99.90;;;;;;5034060;28;20029;-75
2023/10/23 02:16:02;;;;;;;7.00;1.75;;;12.70;99.90;;;;;;5037285;28;20032;-75
2023/10/23 02:18:28;;;;;;;3.95;2.28;;;12.70;99.90;;;;;;5033504;28;20057;-75
2023/10/23 02:20:54;;;;;;;3.90;1.70;;;12.60;99.90;;;;;;5028795;28;20048;-75
2023/10/23 02:23:19;;;;;;;13.38;2.35;;;12.50;99.90;;;;;;5036695;28;20104;-75
2023/10/23 02:25:46;;;;;;;5.30;2.15;;;12.40;99.90;;;;;;5034747;28;20386;-75
2023/10/23 02:28:13;;;;;;;4.68;1.70;;;12.20;99.90;;;;;;5040482;28;20425;-75
2023/10/23 02:30:39;;;;;;;5.97;1.65;;;12.10;99.90;;;;;;5039488;28;20033;-75
2023/10/23 02:33:05;;;;;;;5.97;2.15;;;12.10;99.90;;;;;;5039490;28;20034;-75
2023/10/23 02:35:34;;;;;;;7.75;1.73;;;12.10;99.90;;;;;;5038861;28;20183;-75
2023/10/23 02:38:00;;;;;;;5.13;1.80;;;12.10;99.90;;;;;;5045058;28;20037;-75
2023/10/23 02:40:26;;;;;;;5.18;1.45;;;12.10;99.90;;;;;;5044953;28;20029;-75
2023/10/23 02:42:52;;;;;;;3.90;1.50;;;12.10;99.90;;;;;;5039275;28;20021;-75
2023/10/23 02:45:18;;;;;;;7.93;1.48;;;12.20;99.90;;;;;;5038182;28;20029;-75
2023/10/23 02:47:43;;;;;;;7.00;1.52;;;12.20;99.90;;;;;;5039687;28;20120;-75
2023/10/23 02:50:09;;;;;;;5.30;1.20;;;12.20;99.90;;;;;;5040898;28;20505;-75
2023/10/23 02:52:35;;;;;;;3.35;1.60;;;12.20;99.90;;;;;;5044182;28;20037;-75
2023/10/23 02:55:01;;;;;;;7.88;1.92;;;12.10;99.90;;;;;;5033960;28;20029;-75
2023/10/23 02:57:26;;;;;;;21.05;2.05;;;12.10;99.90;;;;;;5040948;28;20029;-75
2023/10/23 02:59:52;;;;;;;4.53;1.15;;;12.10;99.90;;;;;;5037345;28;20022;-75
2023/10/23 03:02:18;;;;;;;6.72;1.20;;;12.00;99.90;;;;;;5037102;28;20087;-75
2023/10/23 03:04:44;;;;;;;4.55;1.63;;;12.00;99.90;;;;;;5032749;28;20079;-75
2023/10/23 03:07:10;;;;;;;5.72;1.75;;;12.00;99.90;;;;;;5033895;28;20514;-75
2023/10/23 03:09:36;;;;;;;4.97;1.77;;;11.90;99.90;;;;;;5034830;28;20056;-75
2023/10/23 03:12:03;;;;;;;5.47;1.83;;;11.90;99.90;;;;;;5033570;28;20463;-75
2023/10/23 03:14:28;;;;;;;6.88;1.85;;;11.80;99.90;;;;;;5035772;28;20049;-75
2023/10/23 03:16:54;;;;;;;5.85;1.67;;;11.80;99.90;;;;;;5034111;28;20044;-75
2023/10/23 03:19:22;;;;;;;3.35;1.45;;;11.80;99.90;;;;;;5035426;28;20040;-75
2023/10/23 03:21:48;;;;;;;6.40;1.45;;;11.80;99.90;;;;;;5026880;28;20045;-75
2023/10/23 03:24:15;;;;;;;3.35;1.30;;;11.70;99.90;;;;;;5030406;28;20025;-75
2023/10/23 03:26:41;;;;;;;7.25;1.70;;;11.70;99.90;;;;;;5034534;28;20053;-75
2023/10/23 03:29:07;;;;;;;5.00;1.35;;;11.70;99.90;;;;;;5034852;28;20528;-75
2023/10/23 03:31:32;;;;;;;9.35;1.50;;;11.70;99.90;;;;;;5036965;28;20029;-75
2023/10/23 03:34:01;;;;;;;6.85;1.42;;;11.70;99.90;;;;;;5030298;28;20503;-75
2023/10/23 03:36:27;;;;;;;3.90;1.25;;;11.70;99.90;;;;;;5037089;28;20365;-75
2023/10/23 03:38:54;;;;;;;4.68;1.70;;;11.70;99.90;;;;;;5034215;28;20087;-75
2023/10/23 03:41:20;;;;;;;5.88;1.73;;;11.60;99.90;;;;;;5033485;28;20029;-75
2023/10/23 03:43:45;;;;;;;4.13;1.60;;;11.60;99.90;;;;;;5041064;28;20099;-75
2023/10/23 03:46:11;;;;;;;3.38;1.35;;;11.60;99.90;;;;;;5037245;28;20669;-75
2023/10/23 03:48:37;;;;;;;8.65;2.17;;;11.70;99.90;;;;;;5036127;28;20107;-75
2023/10/23 03:51:03;;;;;;;4.47;1.88;;;11.70;99.90;;;;;;5039096;28;20071;-75
2023/10/23 03:53:29;;;;;;;6.93;1.58;;;11.80;99.90;;;;;;5039450;28;20119;-75
2023/10/23 03:55:55;;;;;;;4.70;1.45;;;11.90;99.90;;;;;;5031014;28;20121;-75
2023/10/23 03:58:21;;;;;;;5.32;1.30;;;12.10;99.90;;;;;;5039124;28;20048;-75
2023/10/23 04:00:51;;;;;;;5.60;1.58;;;12.10;99.90;;;;;;5036294;28;20116;-75
2023/10/23 04:03:17;;;;;;;5.55;2.22;;;12.10;99.90;;;;;;5032332;28;20588;-75
2023/10/23 04:05:43;;;;;;;5.47;1.70;;;12.20;99.90;;;;;;5031963;28;20556;-75
2023/10/23 04:08:08;;;;;;;4.45;1.60;;;12.20;99.90;;;;;;5033847;28;20103;-75
2023/10/23 04:10:34;;;;;;;4.78;1.25;;;12.10;99.90;;;;;;5036844;28;20101;-75
2023/10/23 04:13:00;;;;;;;5.18;1.98;;;12.10;99.90;;;;;;5034821;28;20032;-75
2023/10/23 04:15:25;;;;;;;6.55;1.85;;;12.00;99.90;;;;;;5036385;28;20579;-75
2023/10/23 04:17:51;;;;;;;4.60;1.40;;;12.00;99.90;;;;;;5039431;28;20492;-75
2023/10/23 04:20:17;;;;;;;6.15;1.60;;;12.00;99.90;;;;;;5038037;28;20028;-75
2023/10/23 04:22:43;;;;;;;7.10;1.55;;;12.10;99.90;;;;;;5034497;28;20041;-75
2023/10/23 04:25:09;;;;;;;4.50;1.60;;;12.20;99.90;;;;;;5037819;28;20121;-75
2023/10/23 04:27:35;;;;;;;10.32;2.65;;;12.20;99.90;;;;;;5039211;28;20107;-75
2023/10/23 04:30:00;;;;;;;5.53;1.50;;;12.30;99.90;;;;;;5033025;28;20033;-75
2023/10/23 04:32:27;;;;;;;2.78;1.33;;;12.20;99.90;;;;;;5034659;28;20038;-75
2023/10/23 04:34:53;;;;;;;4.70;1.88;;;12.20;99.90;;;;;;5031121;28;20029;-75
2023/10/23 04:37:19;;;;;;;4.50;1.67;;;12.10;99.90;;;;;;5031468;28;20037;-75
2023/10/23 04:39:44;;;;;;;4.55;1.40;;;12.10;99.90;;;;;;5034810;28;20044;-75
2023/10/23 04:42:10;;;;;;;3.80;1.60;;;12.00;99.90;;;;;;5035838;28;20538;-75
2023/10/23 04:44:36;;;;;;;6.40;1.70;;;12.00;99.90;;;;;;5035726;28;20021;-75
2023/10/23 04:47:02;;;;;;;7.10;2.30;;;12.00;99.90;;;;;;5037629;28;20029;-75
2023/10/23 04:49:28;;;;;;;6.13;2.15;;;12.00;99.90;;;;;;5032967;28;20087;-75
2023/10/23 04:51:53;;;;;;;5.00;1.60;;;12.00;99.90;;;;;;5033217;28;20072;-75
2023/10/23 04:54:19;;;;;;;5.82;1.98;;;12.00;99.90;;;;;;5038410;28;20739;-75
2023/10/23 04:56:46;;;;;;;4.97;2.10;;;12.10;99.90;;;;;;5037637;28;20116;-75
2023/10/23 04:59:11;;;;;;;6.63;1.60;;;12.10;99.90;;;;;;5031690;28;20033;-75
2023/10/23 05:01:37;;;;;;;5.05;1.15;;;12.10;99.90;;;;;;5043609;28;20029;-75
2023/10/23 05:04:04;;;;;;;4.57;2.00;;;12.10;99.90;;;;;;5040313;28;20051;-75
2023/10/23 05:06:29;;;;;;;7.45;2.35;;;12.10;99.90;;;;;;5038534;28;20044;-75
2023/10/23 05:08:55;;;;;;;4.65;1.50;;;12.10;99.90;;;;;;5032976;28;20189;-75
2023/10/23 05:11:21;;;;;;;5.13;1.70;;;12.10;99.90;;;;;;5033040;28;20033;-75
2023/10/23 05:13:47;;;;;;;7.00;2.78;;;12.20;99.90;;;;;;5038578;28;20626;-75
2023/10/23 05:16:13;;;;;;;5.40;1.70;;;12.20;99.90;;;;;;5033989;28;20033;-75
2023/10/23 05:18:39;;;;;;;5.55;1.58;;;12.30;99.90;;;;;;5028478;28;20057;-75
2023/10/23 05:21:09;;;;;;;17.27;1.90;;;12.30;99.90;;;;;;5034374;28;20510;-75
2023/10/23 05:23:39;;;;;;;4.78;1.55;;;12.30;99.90;;;;;;5030603;28;20025;-75
2023/10/23 05:26:05;;;;;;;5.07;1.63;;;12.20;99.90;;;;;;5029481;28;20122;-75
2023/10/23 05:28:31;;;;;;;5.03;1.70;;;12.10;99.90;;;;;;5040860;28;20056;-74
2023/10/23 05:30:57;;;;;;;5.13;2.10;;;11.90;99.90;;;;;;5030839;28;20044;-75
2023/10/23 05:33:23;;;;;;;9.68;2.10;;;11.90;99.90;;;;;;5047291;28;20087;-75
2023/10/23 05:35:49;;;;;;;8.23;2.25;;;11.90;99.90;;;;;;5048737;28;20029;-75
2023/10/23 05:38:15;;;;;;;8.57;1.67;;;11.80;99.90;;;;;;5041522;28;20037;-75
2023/10/23 05:40:40;;;;;;;4.05;2.13;;;11.80;99.90;;;;;;5041364;28;20215;-74
2023/10/23 05:43:06;;;;;;;5.38;1.80;;;11.90;99.90;;;;;;5039870;28;20119;-75
2023/10/23 05:45:32;;;;;;;6.60;2.20;;;11.90;99.90;;;;;;5028361;28;20104;-74
2023/10/23 05:47:57;;;;;;;9.15;2.72;;;11.90;99.90;;;;;;5035061;28;20199;-74
2023/10/23 05:50:23;;;;;;;4.55;1.67;;;12.10;99.90;;;;;;5031297;28;20106;-74
2023/10/23 05:52:49;;;;;;;3.90;1.88;;;12.00;99.90;;;;;;5029030;28;20026;-73
2023/10/23 05:55:14;;;;;;;6.50;2.28;;;12.00;99.90;;;;;;5034700;28;20032;-74
2023/10/23 05:57:40;;;;;;;5.95;1.80;;;12.10;99.90;;;;;;5024397;28;20038;-73
2023/10/23 06:00:08;;;;;;;7.22;2.00;;;12.20;99.90;;;;;;5025401;28;20044;-74
2023/10/23 06:02:34;;;;;;;12.38;2.15;;;12.20;99.90;;;;;;5028226;28;20072;-73
2023/10/23 06:05:00;;;;;;;6.03;1.75;;;12.20;99.90;;;;;;5032651;28;20075;-73
2023/10/23 06:07:26;;;;;;;5.35;1.83;;;12.20;99.90;;;;;;5029919;28;20514;-73
2023/10/23 06:09:51;;;;;;;7.50;2.08;;;12.20;99.90;;;;;;5030656;28;20025;-73
2023/10/23 06:12:17;;;;;;;4.53;1.80;;;12.20;99.90;;;;;;5031384;28;20116;-73
2023/10/23 06:14:43;;;;;;;3.63;1.73;;;12.20;99.90;;;;;;5034382;28;20376;-74
2023/10/23 06:17:09;;;;;;;3.75;1.50;;;12.30;99.90;;;;;;5024623;28;20073;-74
2023/10/23 06:19:36;;;;;;;8.57;2.08;;;12.30;99.90;;;;;;5032113;28;20490;-74
2023/10/23 06:22:02;;;;;;;4.88;1.52;;;12.40;99.90;;;;;;5030915;28;20068;-74
2023/10/23 06:24:28;;;;;;;6.35;1.80;;;12.40;99.90;;;;;;5024345;28;20104;-74
2023/10/23 06:26:53;;;;;;;3.92;1.85;;;12.40;99.90;;;;;;5031378;28;20051;-74
2023/10/23 06:29:19;;;;;;;6.68;2.03;;;12.40;99.90;;;;;;5030934;28;20033;-74
2023/10/23 06:31:45;;;;;;;4.18;2.00;;;12.40;99.90;;;;;;5042779;28;20028;-73
2023/10/23 06:34:10;;;;;;;6.53;2.00;;;12.40;99.90;;;;;;5034486;28;20099;-73
2023/10/23 06:36:40;;;;;;;8.07;2.05;;;12.40;99.90;;;;;;5027051;28;21011;-74
2023/10/23 06:39:06;;;;;;;8.15;2.38;;;12.40;99.90;;;;;;5024939;28;20467;-74
2023/10/23 06:41:32;;;;;;;7.05;2.20;;;12.30;99.90;;;;;;5027025;28;20037;-73
2023/10/23 06:43:57;;;;;;;5.22;1.50;;;12.20;99.90;;;;;;5023429;28;20144;-74
2023/10/23 06:46:23;;;;;;;6.72;1.90;;;12.70;99.90;;;;;;5029531;28;20037;-73
2023/10/23 06:48:49;;;;;;;3.33;1.45;;;12.50;99.90;;;;;;5030170;28;20025;-73
2023/10/23 06:51:14;;;;;;;8.68;2.30;;;12.50;99.90;;;;;;5034483;28;20378;-73
2023/10/23 06:53:40;;;;;;;4.50;1.85;;;12.60;99.90;;;;;;5025005;28;20034;-74
2023/10/23 06:56:08;;;;;;;5.07;2.35;;;12.60;99.90;;;;;;5040311;28;20068;-73
2023/10/23 06:58:34;;;;;;;5.63;1.88;;;12.50;99.90;;;;;;5029472;28;20030;-73
2023/10/23 07:01:09;;;;;;;4.95;2.20;;;12.60;99.90;;;;;;5031270;28;20091;-73
2023/10/23 07:03:36;;;;;;;5.60;2.30;;;12.70;99.90;;;;;;5029240;28;20140;-74
2023/10/23 07:06:08;;;;;;;6.05;1.80;;;12.70;99.90;;;;;;5024444;28;20046;-73
2023/10/23 07:08:34;;;;;;;5.28;2.53;;;12.70;99.90;;;;;;5025287;28;20124;-73
2023/10/23 07:11:00;;;;;;;10.20;2.40;;;12.70;99.90;;;;;;5036663;28;20027;-73
2023/10/23 07:13:25;;;;;;;8.40;2.53;;;12.70;99.90;;;;;;5041410;28;20029;-74
2023/10/23 07:15:51;;;;;;;4.18;2.63;;;12.60;99.90;;;;;;5030286;28;20029;-74
2023/10/23 07:18:17;;;;;;;8.48;2.95;;;12.70;99.90;;;;;;5037045;28;20507;-73
2023/10/23 07:21:01;;;;;;;10.07;2.35;;;12.70;99.90;;;;;;5038124;28;20029;-73
2023/10/23 07:23:29;;;;;;;5.65;2.15;;;12.70;99.90;;;;;;5031416;28;20144;-73
2023/10/23 07:26:08;;;;;;;6.10;2.88;;;12.70;99.90;;;;;;5042768;28;20021;-73
2023/10/23 07:28:35;;;;;;;9.27;2.70;;;12.70;99.90;;;;;;5040485;28;20056;-73
2023/10/23 07:31:04;;;;;;;6.35;2.28;;;12.70;99.90;;;;;;5032051;28;20439;-73
2023/10/23 07:33:30;;;;;;;8.95;2.25;;;12.80;99.90;;;;;;5039161;28;20045;-73
2023/10/23 07:36:14;;;;;;;8.18;3.60;;;12.90;99.90;;;;;;5037250;28;20551;-72
2023/10/23 07:38:42;;;;;;;8.07;3.47;;;13.20;99.90;;;;;;5039807;28;20598;-73
2023/10/23 07:41:09;;;;;;;7.72;2.47;;;13.20;99.90;;;;;;5034686;28;20048;-73
2023/10/23 07:43:34;;;;;;;18.00;2.97;;;13.30;99.90;;;;;;5035340;28;20679;-74
2023/10/23 07:46:08;;;;;;;5.30;2.13;;;13.50;99.90;;;;;;5029780;28;20029;-75
2023/10/23 07:48:34;;;;;;;106.95;14.07;;;13.30;99.90;;;;;;5034713;28;20056;-75
2023/10/23 07:51:03;;;;;;;7.40;2.78;;;13.10;99.90;;;;;;5030535;28;20028;-75
2023/10/23 07:53:30;;;;;;;8.98;2.88;;;12.90;99.90;;;;;;5042171;28;20571;-74
2023/10/23 07:55:56;;;;;;;7.03;2.67;;;12.80;99.90;;;;;;5040486;28;20025;-75
2023/10/23 07:58:22;;;;;;;24.48;4.07;;;12.80;99.90;;;;;;5035342;28;20067;-74
2023/10/23 08:00:51;;;;;;;15.48;2.83;;;12.80;99.90;;;;;;5031104;28;20033;-74
2023/10/23 08:03:18;;;;;;;37.80;5.05;;;12.80;99.90;;;;;;5042151;28;20045;-74
2023/10/23 08:05:43;;;;;;;9.40;3.38;;;12.80;99.90;;;;;;5036690;28;20867;-74
2023/10/23 08:08:09;;;;;;;7.40;2.30;;;12.80;99.90;;;;;;5035798;28;20037;-74
2023/10/23 08:10:35;;;;;;;9.15;2.10;;;12.80;99.90;;;;;;5041152;28;20463;-75
2023/10/23 08:13:00;;;;;;;4.75;2.30;;;12.60;99.90;;;;;;5044060;28;20037;-75
2023/10/23 08:15:26;;;;;;;5.97;2.38;;;12.70;99.90;;;;;;5044311;28;20029;-76
2023/10/23 08:17:52;;;;;;;8.98;2.67;;;12.80;99.90;;;;;;5034106;28;20072;-75
2023/10/23 08:20:17;;;;;;;10.65;2.58;;;13.00;99.90;;;;;;5046435;28;20039;-76
2023/10/23 08:22:43;;;;;;;7.53;3.47;;;13.10;99.90;;;;;;5038141;28;20064;-73
2023/10/23 08:25:09;;;;;;;8.13;2.08;;;13.00;99.90;;;;;;5036241;28;20064;-73
2023/10/23 08:27:35;;;;;;;6.50;2.30;;;13.20;99.90;;;;;;5041171;28;20034;-74
2023/10/23 08:30:01;;;;;;;6.22;2.35;;;13.10;99.90;;;;;;5037554;28;20526;-73
2023/10/23 08:32:26;;;;;;;5.25;2.22;;;13.10;99.90;;;;;;5045568;28;20037;-73
2023/10/23 08:34:54;;;;;;;6.80;2.55;;;13.10;99.90;;;;;;5037130;28;20055;-73
2023/10/23 08:37:23;;;;;;;5.95;2.17;;;13.20;99.90;;;;;;5039239;28;20453;-74
2023/10/23 08:39:51;;;;;;;6.30;2.47;;;13.20;99.90;;;;;;5033957;28;20028;-74
2023/10/23 08:42:17;;;;;;;6.38;2.42;;;13.20;99.90;;;;;;5039807;28;20095;-74
2023/10/23 08:44:45;;;;;;;7.32;2.53;;;13.30;99.90;;;;;;5027481;28;20038;-73
2023/10/23 08:47:11;;;;;;;12.38;2.72;;;13.40;99.90;;;;;;5024233;28;20125;-75
2023/10/23 08:49:36;;;;;;;7.35;2.20;;;13.50;99.90;;;;;;5025938;28;20128;-74
2023/10/23 08:52:09;;;;;;;5.90;2.10;;;13.50;99.90;;;;;;5030215;28;20033;-74
2023/10/23 08:54:35;;;;;;;5.32;2.38;;;13.50;99.90;;;;;;5030007;28;20059;-75
2023/10/23 08:57:02;;;;;;;5.00;2.35;;;13.50;99.90;;;;;;5037969;28;20462;-74
2023/10/23 08:59:28;;;;;;;4.18;2.28;;;13.60;99.90;;;;;;5036104;28;20111;-74
2023/10/23 09:01:54;;;;;;;6.45;2.65;;;13.60;99.90;;;;;;5033900;28;20129;-74
2023/10/23 09:04:20;;;;;;;6.38;2.42;;;13.70;99.90;;;;;;5037016;28;20111;-75
2023/10/23 09:06:47;;;;;;;4.68;2.10;;;13.90;99.90;;;;;;5032951;28;20041;-75
2023/10/23 09:09:16;;;;;;;6.95;2.35;;;13.90;99.90;;;;;;5034785;28;20021;-75
2023/10/23 09:11:48;;;;;;;5.18;2.42;;;13.90;99.90;;;;;;5040321;28;20025;-75
2023/10/23 09:14:35;;;;;;;5.90;2.15;;;14.00;99.90;;;;;;5038917;28;20575;-75
2023/10/23 09:17:03;;;;;;;15.95;2.22;;;14.10;99.90;;;;;;5045789;28;20032;-76
2023/10/23 09:19:36;;;;;;;7.85;2.20;;;14.10;99.90;;;;;;5036626;28;20025;-75
2023/10/23 09:22:10;;;;;;;7.65;1.98;;;14.10;99.90;;;;;;5034229;28;20078;-75
2023/10/23 09:24:36;;;;;;;;;;;14.10;99.90;;;;;;5033789;28;20727;-74
2023/10/23 09:27:03;;;;;;;5.50;1.52;;;14.10;99.90;;;;;;5043612;28;19916;-76
2023/10/23 09:29:28;;;;;;;9.85;2.60;;;14.20;99.90;;;;;;5038536;28;20418;-75
2023/10/23 09:31:57;;;;;;;5.07;1.75;;;14.40;99.90;;;;;;5043977;28;20029;-75
2023/10/23 09:34:23;;;;;;;4.72;1.80;;;14.50;99.90;;;;;;5041462;28;20181;-76
2023/10/23 09:36:50;;;;;;;7.85;3.13;;;14.60;99.90;;;;;;5034052;28;20049;-75
2023/10/23 09:39:17;;;;;;;4.47;2.33;;;14.70;99.90;;;;;;5036238;28;20584;-75
2023/10/23 09:41:45;;;;;;;5.38;1.60;;;14.80;99.90;;;;;;5036682;28;20100;-75
2023/10/23 09:44:13;;;;;;;8.52;1.80;;;14.90;99.90;;;;;;5037130;28;20937;-75
2023/10/23 09:46:42;;;;;;;13.82;3.08;;;15.10;99.90;;;;;;5034292;28;20107;-75
2023/10/23 09:49:09;;;;;;;7.13;2.70;;;15.10;99.90;;;;;;5038261;28;20057;-74
2023/10/23 09:51:39;;;;;;;12.32;2.75;;;15.10;99.90;;;;;;5041249;28;20717;-74
2023/10/23 09:54:19;;;;;;;9.13;2.42;;;15.10;99.90;;;;;;5038136;28;20037;-75
2023/10/23 09:56:53;;;;;;;4.68;1.75;;;15.20;99.90;;;;;;5032084;28;20029;-75
2023/10/23 09:59:50;;;;;;;6.10;2.17;;;15.20;99.90;;;;;;5032212;28;20025;-75
2023/10/23 10:02:20;;;;;;;6.28;1.45;;;15.10;99.90;;;;;;5030384;28;20548;-76
2023/10/23 10:05:00;;;;;;;8.52;2.35;;;15.20;99.90;;;;;;5035141;28;20115;-75
2023/10/23 10:07:29;;;;;;;6.20;1.90;;;15.30;99.90;;;;;;5053508;28;20478;-74
2023/10/23 10:09:56;;;;;;;5.32;1.58;;;15.50;99.90;;;;;;5032631;28;20071;-74
2023/10/23 10:12:24;;;;;;;4.22;1.70;;;15.70;99.90;;;;;;5033416;28;20033;-75
2023/10/23 10:14:50;;;;;;;10.30;1.95;;;15.70;99.90;;;;;;5055916;28;20399;-77
2023/10/23 10:17:20;;;;;;;4.63;1.67;;;15.90;99.90;;;;;;5045531;28;20672;-75
2023/10/23 10:19:46;;;;;;;9.43;2.20;;;15.90;99.90;;;;;;5042358;28;20045;-76
2023/10/23 10:22:23;;;;;;;4.70;1.77;;;15.80;99.90;;;;;;5038736;28;20025;-75
2023/10/23 10:24:52;;;;;;;9.02;2.03;;;15.80;99.90;;;;;;5034022;28;20079;-76
2023/10/23 10:27:18;;;;;;;4.00;1.70;;;15.90;99.90;;;;;;5038899;28;20208;-77
2023/10/23 10:29:44;;;;;;;5.25;2.17;;;16.10;99.90;;;;;;5044647;28;20025;-76
2023/10/23 10:32:10;;;;;;;7.28;2.08;;;16.10;99.90;;;;;;5030188;28;20171;-76
2023/10/23 10:34:54;;;;;;;4.82;2.00;;;16.20;99.90;;;;;;5040704;28;20025;-77
2023/10/23 10:37:25;;;;;;;7.65;2.10;;;16.20;99.90;;;;;;5051866;28;20041;-76
2023/10/23 10:39:52;;;;;;;4.10;1.92;;;16.30;99.90;;;;;;5048904;28;20095;-76
2023/10/23 10:42:22;;;;;;;7.78;2.15;;;16.10;99.90;;;;;;5032243;28;20077;-76
2023/10/23 10:44:55;;;;;;;8.73;2.72;;;16.10;99.90;;;;;;5042613;28;20171;-75
2023/10/23 10:47:35;;;;;;;3.80;1.90;;;16.10;99.90;;;;;;5029541;28;20025;-75
2023/10/23 10:50:01;;;;;;;5.47;1.83;;;16.10;99.90;;;;;;5035442;28;20032;-76
2023/10/23 10:52:27;;;;;;;3.88;1.55;;;16.20;99.90;;;;;;5045489;28;20187;-75
2023/10/23 10:54:59;;;;;;;4.30;1.95;;;16.30;99.90;;;;;;5030772;28;20041;-75
2023/10/23 10:57:26;;;;;;;5.97;2.00;;;16.40;99.90;;;;;;5039672;28;20041;-76
2023/10/23 10:59:55;;;;;;;6.20;1.92;;;16.50;99.90;;;;;;5031766;28;20025;-74
2023/10/23 11:02:25;;;;;;;7.68;2.28;;;16.50;99.90;;;;;;5029178;28;20049;-75
2023/10/23 11:04:50;;;;;;;9.70;2.67;;;16.60;99.90;;;;;;5038890;28;20036;-75
2023/10/23 11:07:24;;;;;;;5.13;2.38;;;16.70;99.90;;;;;;5034996;28;20049;-75
2023/10/23 11:09:51;;;;;;;5.03;2.05;;;16.80;99.90;;;;;;5037198;28;20029;-75
2023/10/23 11:12:18;;;;;;;5.55;2.03;;;16.80;99.90;;;;;;5036819;28;20135;-74
2023/10/23 11:14:45;;;;;;;6.78;1.80;;;16.60;99.90;;;;;;5043907;28;20036;-73
2023/10/23 11:17:11;;;;;;;8.15;2.10;;;16.60;99.90;;;;;;5037380;28;20034;-74
2023/10/23 11:19:37;;;;;;;4.72;1.30;;;16.70;99.90;;;;;;5038726;28;20539;-75
2023/10/23 11:22:12;;;;;;;11.07;1.90;;;16.90;99.90;;;;;;5041684;28;20113;-74
2023/10/23 11:24:38;;;;;;;6.53;2.55;;;17.00;99.90;;;;;;5041927;28;20108;-74
2023/10/23 11:27:05;;;;;;;5.15;1.58;;;17.10;99.90;;;;;;5036536;28;20091;-74
2023/10/23 11:29:44;;;;;;;4.65;1.75;;;17.10;99.90;;;;;;5032837;28;20087;-74
2023/10/23 11:32:16;;;;;;;7.05;1.85;;;17.10;99.90;;;;;;5032952;28;20034;-74
2023/10/23 11:34:43;;;;;;;5.40;1.70;;;17.00;99.90;;;;;;5040901;28;20401;-74
2023/10/23 11:37:10;;;;;;;4.75;1.73;;;17.00;99.90;;;;;;5037632;28;20037;-74
2023/10/23 11:39:38;;;;;;;8.30;2.50;;;16.90;99.90;;;;;;5032152;28;20033;-74
2023/10/23 11:42:05;;;;;;;4.28;1.40;;;16.80;99.90;;;;;;5032728;28;20103;-74
2023/10/23 11:44:33;;;;;;;10.65;2.28;;;16.70;99.90;;;;;;5040911;28;20411;-74
2023/10/23 11:47:01;;;;;;;4.28;1.88;;;16.80;99.90;;;;;;5040677;28;20027;-74
2023/10/23 11:49:27;;;;;;;7.72;2.30;;;16.90;99.90;;;;;;5037663;28;20494;-75
2023/10/23 11:51:56;;;;;;;4.13;1.63;;;17.00;99.90;;;;;;5043085;28;20017;-74
2023/10/23 11:54:24;;;;;;;5.03;2.33;;;16.90;99.90;;;;;;5032810;28;20029;-74
2023/10/23 11:56:50;;;;;;;4.00;1.70;;;16.90;99.90;;;;;;5029281;28;20496;-74
2023/10/23 11:59:20;;;;;;;5.30;1.48;;;17.00;99.90;;;;;;5035706;28;20375;-74
2023/10/23 12:01:47;;;;;;;3.40;1.58;;;16.90;99.90;;;;;;5038181;28;20422;-74
2023/10/23 12:04:14;;;;;;;10.43;3.40;;;16.90;99.90;;;;;;5035138;28;20045;-74
2023/10/23 12:06:41;;;;;;;6.22;1.83;;;16.90;99.90;;;;;;5035064;28;20026;-74
2023/10/23 12:09:09;;;;;;;9.55;1.95;;;16.70;99.90;;;;;;5034183;28;20040;-74
2023/10/23 12:11:35;;;;;;;11.07;9.90;;;16.70;99.90;;;;;;5034043;28;20064;-74
2023/10/23 12:14:02;;;;;;;5.90;2.40;;;16.80;99.90;;;;;;5036623;28;20056;-74
2023/10/23 12:16:28;;;;;;;3.95;1.73;;;16.90;99.90;;;;;;5038234;28;20155;-74
2023/10/23 12:18:54;;;;;;;5.18;1.33;;;16.80;99.90;;;;;;5039452;28;20076;-74
2023/10/23 12:21:20;;;;;;;3.35;1.33;;;16.80;99.90;;;;;;5041131;28;20088;-74
2023/10/23 12:23:46;;;;;;;8.57;1.98;;;16.80;99.90;;;;;;5037998;28;20029;-74
2023/10/23 12:26:13;;;;;;;7.25;1.67;;;16.80;99.90;;;;;;5028659;28;20394;-74
2023/10/23 12:28:39;;;;;;;4.25;1.60;;;16.80;99.90;;;;;;5036933;28;20454;-73
2023/10/23 12:31:05;;;;;;;3.90;1.90;;;16.90;99.90;;;;;;5029733;28;20649;-75
2023/10/23 12:33:31;;;;;;;6.18;4.03;;;17.10;99.90;;;;;;5046993;28;20036;-75
2023/10/23 12:36:00;;;;;;;6.72;1.35;;;17.50;99.90;;;;;;5048403;28;20397;-74
2023/10/23 12:38:27;;;;;;;6.47;1.95;;;17.50;99.90;;;;;;5043558;28;20033;-75
2023/10/23 12:40:52;;;;;;;5.25;1.50;;;17.60;99.90;;;;;;5041645;28;20028;-75
2023/10/23 12:43:18;;;;;;;9.38;1.80;;;17.50;99.90;;;;;;5047314;28;20044;-74
2023/10/23 12:45:44;;;;;;;7.10;3.13;;;17.70;99.90;;;;;;5047479;28;20033;-75